Time;durP1;ratioP1;P1;durP2;ratioP2;P2;SDS_P1;SDS_P2;PMS_P1;PMS_P2;Temp;Humidity;BMP_temperature;BMP_pressure;BME280_temperature;BME280_humidity;BME280_pressure;Samples;Min_cycle;Max_cycle;Signal;HPM_P1;HPM_P2
2022/12/26 00:00:10;;;;;;;64.18;21.25;;;8.20;99.90;;;;;;4997244;28;20042;-83
2022/12/26 00:02:36;;;;;;;69.32;21.30;;;8.50;99.90;;;;;;4997335;28;20467;-83
2022/12/26 00:05:06;;;;;;;69.97;21.75;;;8.10;99.90;;;;;;4981535;28;20370;-83
2022/12/26 00:07:31;;;;;;;69.88;22.10;;;8.20;99.90;;;;;;4981746;28;20092;-84
2022/12/26 00:09:57;;;;;;;63.50;21.52;;;8.50;99.90;;;;;;4998316;28;20050;-86
2022/12/26 00:12:23;;;;;;;62.70;20.92;;;8.50;99.90;;;;;;4983458;28;20052;-85
2022/12/26 00:14:50;;;;;;;69.70;22.73;;;8.40;99.90;;;;;;4994534;28;20141;-85
2022/12/26 00:17:15;;;;;;;73.60;22.35;;;8.40;99.90;;;;;;5000458;28;20039;-85
2022/12/26 00:19:42;;;;;;;75.72;22.75;;;8.40;99.90;;;;;;4976274;28;20042;-84
2022/12/26 00:22:08;;;;;;;77.30;21.90;;;8.50;99.90;;;;;;4979824;28;20038;-81
2022/12/26 00:24:33;;;;;;;81.03;23.33;;;8.30;99.90;;;;;;4993185;28;20034;-81
2022/12/26 00:26:59;;;;;;;71.22;22.80;;;8.20;99.90;;;;;;5012963;28;20096;-82
2022/12/26 00:29:25;;;;;;;73.57;22.70;;;8.20;99.90;;;;;;4978645;28;20129;-84
2022/12/26 00:31:51;;;;;;;82.05;24.08;;;8.40;99.90;;;;;;4982958;28;20065;-85
2022/12/26 00:34:20;;;;;;;72.10;22.70;;;8.20;99.90;;;;;;4992451;28;20466;-84
2022/12/26 00:36:46;;;;;;;75.57;23.42;;;8.50;99.90;;;;;;4995052;28;20042;-82
2022/12/26 00:39:30;;;;;;;73.78;22.08;;;8.30;99.90;;;;;;4989615;28;20058;-81
2022/12/26 00:41:56;;;;;;;68.27;22.87;;;8.30;99.90;;;;;;4997085;28;20042;-85
2022/12/26 00:44:21;;;;;;;83.60;23.23;;;8.20;99.90;;;;;;4990406;28;20332;-81
2022/12/26 00:46:47;;;;;;;67.57;21.83;;;8.20;99.90;;;;;;4994510;28;20084;-87
2022/12/26 00:49:13;;;;;;;71.40;21.95;;;8.20;99.90;;;;;;4978984;28;20120;-82
2022/12/26 00:51:38;;;;;;;74.50;22.30;;;8.40;99.90;;;;;;4980188;28;20041;-82
2022/12/26 00:54:04;;;;;;;82.32;23.58;;;8.20;99.90;;;;;;4993035;28;20049;-84
2022/12/26 00:56:30;;;;;;;83.90;23.33;;;8.10;99.90;;;;;;5005316;28;20038;-84
2022/12/26 00:58:55;;;;;;;82.60;23.02;;;8.50;99.90;;;;;;4976201;28;20050;-80
2022/12/26 01:01:22;;;;;;;74.93;22.55;;;8.60;99.90;;;;;;4993142;28;20038;-81
2022/12/26 01:03:49;;;;;;;92.25;23.83;;;8.60;99.90;;;;;;4994526;28;20173;-85
2022/12/26 01:06:16;;;;;;;84.68;24.30;;;8.20;99.90;;;;;;5002114;28;20049;-83
2022/12/26 01:08:42;;;;;;;83.65;24.42;;;8.50;99.90;;;;;;4993287;28;20042;-85
2022/12/26 01:11:11;;;;;;;99.13;23.75;;;8.60;99.90;;;;;;4977586;28;20034;-82
2022/12/26 01:13:37;;;;;;;82.43;23.23;;;8.20;99.90;;;;;;4995271;28;20038;-85
2022/12/26 01:16:04;;;;;;;85.80;23.67;;;8.50;99.90;;;;;;4993078;28;20410;-83
2022/12/26 01:18:30;;;;;;;95.65;24.63;;;8.50;99.90;;;;;;4994781;28;20057;-82
2022/12/26 01:21:05;;;;;;;89.85;24.40;;;8.20;99.90;;;;;;5004420;28;20043;-83
2022/12/26 01:23:31;;;;;;;92.72;24.85;;;8.30;99.90;;;;;;4989438;28;20512;-86
2022/12/26 01:25:57;;;;;;;86.53;24.60;;;8.20;99.90;;;;;;4992814;28;20048;-84
2022/12/26 01:28:22;;;;;;;84.18;24.23;;;8.60;99.90;;;;;;4986360;28;20041;-86
2022/12/26 01:30:48;;;;;;;100.22;25.92;;;8.20;99.90;;;;;;4977732;28;20044;-85
2022/12/26 01:33:14;;;;;;;93.32;26.35;;;8.10;99.90;;;;;;4992943;28;20169;-82
2022/12/26 01:35:48;;;;;;;98.13;26.23;;;8.20;99.90;;;;;;4993707;28;20145;-84
2022/12/26 01:38:14;;;;;;;87.88;24.42;;;8.20;99.90;;;;;;4992765;28;20046;-85
2022/12/26 01:40:42;;;;;;;80.18;23.83;;;8.20;99.90;;;;;;4978364;28;20053;-83
2022/12/26 01:43:12;;;;;;;91.80;24.48;;;8.20;99.90;;;;;;4997341;28;20054;-79
2022/12/26 01:45:37;;;;;;;88.38;23.15;;;8.50;99.90;;;;;;5017034;28;20089;-80
2022/12/26 01:48:03;;;;;;;101.60;25.88;;;8.50;99.90;;;;;;5006143;28;20046;-82
2022/12/26 01:51:04;;;;;;;100.75;25.50;;;8.30;99.90;;;;;;5006251;28;20042;-80
2022/12/26 01:53:33;;;;;;;91.50;25.35;;;8.50;99.90;;;;;;5004495;28;20101;-81
2022/12/26 01:56:12;;;;;;;102.38;26.05;;;8.50;99.90;;;;;;5007231;28;20106;-81
2022/12/26 01:58:47;;;;;;;91.03;25.95;;;8.40;99.90;;;;;;4979960;28;20116;-83
2022/12/26 02:01:13;;;;;;;101.28;26.10;;;8.50;99.90;;;;;;4993899;28;20081;-81
2022/12/26 02:06:27;;;;;;;84.80;23.63;;;8.30;99.90;;;;;;4987642;28;20098;-83
2022/12/26 02:08:53;;;;;;;80.03;24.13;;;8.40;99.90;;;;;;5007965;28;20046;-82
2022/12/26 02:11:26;;;;;;;80.60;22.90;;;8.50;99.90;;;;;;4991837;28;20097;-83
2022/12/26 02:13:52;;;;;;;82.93;22.52;;;8.50;99.90;;;;;;4977326;28;20487;-83
2022/12/26 02:16:19;;;;;;;72.63;23.13;;;8.30;99.90;;;;;;4976934;28;20074;-83
2022/12/26 02:18:45;;;;;;;81.57;22.48;;;8.50;99.90;;;;;;4994563;28;20041;-85
2022/12/26 02:21:14;;;;;;;68.95;21.40;;;8.20;99.90;;;;;;4990086;28;20042;-84
2022/12/26 02:24:32;;;;;;;70.32;22.95;;;8.50;99.90;;;;;;4972697;28;20054;-82
2022/12/26 02:27:28;;;;;;;69.00;20.95;;;8.20;99.90;;;;;;4963659;28;20483;-83
2022/12/26 02:30:11;;;;;;;63.17;20.25;;;8.50;99.90;;;;;;4995114;28;20054;-85
2022/12/26 02:32:55;;;;;;;56.35;19.83;;;8.20;99.90;;;;;;4955855;28;20144;-85
2022/12/26 02:35:24;;;;;;;68.30;20.60;;;8.40;99.90;;;;;;4970428;28;20046;-83
2022/12/26 02:38:10;;;;;;;64.63;20.38;;;8.60;99.90;;;;;;4955528;28;20053;-84
2022/12/26 02:40:51;;;;;;;60.15;19.98;;;8.20;99.90;;;;;;4987843;28;20050;-83
2022/12/26 02:43:43;;;;;;;56.00;19.20;;;8.30;99.90;;;;;;4988276;28;20442;-83
2022/12/26 02:47:03;;;;;;;56.78;19.83;;;8.40;99.90;;;;;;4947384;28;20047;-84
2022/12/26 03:13:32;;;;;;;50.75;22.67;;;8.30;99.90;;;;;;4975464;28;20054;-81
2022/12/26 03:18:53;;;;;;;57.83;25.23;;;8.40;99.90;;;;;;4998012;28;20493;-81
2022/12/26 03:21:23;;;;;;;58.90;26.35;;;8.70;99.90;;;;;;5007079;28;20084;-82
2022/12/26 03:23:52;;;;;;;55.03;25.88;;;8.70;99.90;;;;;;4988380;28;20038;-81
2022/12/26 03:26:38;;;;;;;54.20;25.77;;;8.70;99.90;;;;;;4973297;28;20069;-81
2022/12/26 03:31:53;;;;;;;60.65;27.58;;;8.60;99.90;;;;;;4986782;28;20154;-82
2022/12/26 03:34:20;;;;;;;59.30;27.48;;;8.30;99.90;;;;;;4987151;28;20154;-82
2022/12/26 03:36:55;;;;;;;66.18;28.95;;;8.50;99.90;;;;;;4961171;28;20122;-82
2022/12/26 04:44:56;;;;;;;62.05;28.70;;;8.60;99.90;;;;;;4988207;28;20054;-83
2022/12/26 04:47:22;;;;;;;62.35;28.95;;;8.80;99.90;;;;;;4993562;28;20046;-82
2022/12/26 04:58:40;;;;;;;61.50;29.20;;;8.90;99.90;;;;;;4993466;28;20122;-83
2022/12/26 05:09:35;;;;;;;60.15;30.67;;;8.60;99.90;;;;;;4993721;28;20108;-85
2022/12/26 05:12:04;;;;;;;56.33;29.90;;;8.60;99.90;;;;;;4992131;28;20034;-84
2022/12/26 05:14:30;;;;;;;55.65;29.33;;;8.80;99.90;;;;;;4977711;28;20145;-83
2022/12/26 05:30:47;;;;;;;47.15;27.00;;;8.60;99.90;;;;;;5004640;28;20105;-85
2022/12/26 05:35:58;;;;;;;44.20;26.63;;;8.80;99.90;;;;;;4994894;28;20048;-86
2022/12/26 05:42:05;;;;;;;46.58;25.88;;;8.80;99.90;;;;;;4976775;28;20113;-83
2022/12/26 05:44:31;;;;;;;44.70;25.70;;;8.60;99.90;;;;;;4979532;28;20070;-83
2022/12/26 05:46:56;;;;;;;44.33;27.33;;;8.60;99.90;;;;;;4979465;28;20038;-84
2022/12/26 05:49:22;;;;;;;48.28;27.40;;;8.80;99.90;;;;;;4987579;28;20042;-79
2022/12/26 05:51:49;;;;;;;44.05;26.85;;;8.80;99.90;;;;;;4992787;28;20042;-85
2022/12/26 05:54:15;;;;;;;45.47;26.75;;;8.40;99.90;;;;;;4976232;28;20188;-83
2022/12/26 05:56:41;;;;;;;43.88;26.95;;;8.70;99.90;;;;;;5008146;28;20130;-84
2022/12/26 05:59:08;;;;;;;47.53;28.55;;;8.50;99.90;;;;;;4993099;28;20216;-82
2022/12/26 06:01:34;;;;;;;46.13;27.92;;;8.50;99.90;;;;;;4976806;28;20034;-82
2022/12/26 06:04:00;;;;;;;51.22;27.98;;;8.60;99.90;;;;;;4970884;28;20149;-82
2022/12/26 06:06:26;;;;;;;48.85;28.23;;;8.60;99.90;;;;;;4975634;28;20789;-82
2022/12/26 06:09:10;;;;;;;43.30;28.02;;;8.50;99.90;;;;;;4975396;28;20053;-85
2022/12/26 06:11:36;;;;;;;42.83;28.17;;;8.70;99.90;;;;;;5022486;28;20176;-85
2022/12/26 06:14:03;;;;;;;42.90;28.85;;;8.60;99.90;;;;;;4987483;28;20162;-81
2022/12/26 06:16:29;;;;;;;41.40;28.00;;;8.50;99.90;;;;;;4987408;28;20064;-81
2022/12/26 06:18:55;;;;;;;41.55;27.45;;;8.60;99.90;;;;;;4984928;28;20042;-81
2022/12/26 06:21:21;;;;;;;38.95;25.85;;;8.60;99.90;;;;;;4973838;28;20261;-84
2022/12/26 06:23:48;;;;;;;38.17;24.70;;;8.80;99.90;;;;;;4993358;28;20038;-83
2022/12/26 06:26:15;;;;;;;41.35;25.77;;;8.60;99.90;;;;;;4971795;28;20046;-80
2022/12/26 06:28:42;;;;;;;37.83;26.45;;;8.70;99.90;;;;;;4972325;28;20146;-84
2022/12/26 06:31:19;;;;;;;39.80;25.13;;;8.60;99.90;;;;;;4974388;28;20042;-82
2022/12/26 06:33:45;;;;;;;41.22;25.42;;;8.60;99.90;;;;;;4991700;28;20333;-80
2022/12/26 06:36:16;;;;;;;36.35;24.75;;;8.60;99.90;;;;;;4992171;28;20382;-82
2022/12/26 06:38:42;;;;;;;37.65;23.92;;;8.80;99.90;;;;;;4989829;28;20034;-85
2022/12/26 06:41:11;;;;;;;39.03;24.20;;;8.50;99.90;;;;;;4989026;28;20046;-82
2022/12/26 06:43:36;;;;;;;36.95;23.13;;;8.70;99.90;;;;;;4967190;28;20046;-82
2022/12/26 06:46:04;;;;;;;34.20;23.40;;;8.80;99.90;;;;;;4989982;28;20030;-86
2022/12/26 06:48:31;;;;;;;33.53;22.88;;;8.70;99.90;;;;;;4970192;28;20042;-83
2022/12/26 06:50:57;;;;;;;45.67;23.00;;;8.60;99.90;;;;;;4971069;28;20038;-82
2022/12/26 06:53:23;;;;;;;34.53;22.33;;;8.60;99.90;;;;;;4990017;28;20069;-83
2022/12/26 06:55:52;;;;;;;36.50;21.23;;;8.70;99.90;;;;;;4972874;28;20537;-81
2022/12/26 06:58:18;;;;;;;34.50;20.40;;;8.80;99.90;;;;;;4998776;28;20048;-82
2022/12/26 07:00:43;;;;;;;30.00;19.25;;;8.80;99.90;;;;;;4974177;28;20038;-83
2022/12/26 07:03:12;;;;;;;31.70;20.55;;;8.80;99.90;;;;;;4972948;28;20111;-81
2022/12/26 07:05:40;;;;;;;32.30;18.63;;;8.80;99.90;;;;;;4970616;28;20046;-80
2022/12/26 07:08:05;;;;;;;34.53;18.70;;;8.70;99.90;;;;;;4987829;28;21043;-80
2022/12/26 07:10:35;;;;;;;31.20;19.00;;;8.90;99.90;;;;;;4973045;28;20046;-82
2022/12/26 07:13:01;;;;;;;31.45;18.88;;;8.90;99.90;;;;;;4973041;28;20050;-83
2022/12/26 07:15:27;;;;;;;27.10;17.98;;;8.90;99.90;;;;;;4972246;28;20042;-81
2022/12/26 07:17:52;;;;;;;27.42;16.55;;;8.90;99.90;;;;;;4973793;28;20414;-82
2022/12/26 07:20:18;;;;;;;27.90;18.15;;;8.80;99.90;;;;;;4989842;28;20045;-81
2022/12/26 07:22:44;;;;;;;27.85;17.70;;;8.80;99.90;;;;;;4989062;28;20065;-80
2022/12/26 07:25:48;;;;;;;30.52;17.05;;;8.80;99.90;;;;;;5019530;28;20049;-81
2022/12/26 07:28:14;;;;;;;29.98;16.02;;;8.80;99.90;;;;;;4987827;28;20472;-82
2022/12/26 07:30:46;;;;;;;24.98;14.65;;;9.00;99.90;;;;;;4985379;28;20049;-81
2022/12/26 07:33:12;;;;;;;22.40;14.30;;;8.70;99.90;;;;;;4970415;28;20034;-81
2022/12/26 07:35:37;;;;;;;22.38;13.65;;;8.90;99.90;;;;;;4987000;28;20089;-79
2022/12/26 07:38:03;;;;;;;19.77;12.57;;;8.70;99.90;;;;;;4988267;28;20046;-83
2022/12/26 07:40:29;;;;;;;22.65;12.52;;;8.80;99.90;;;;;;4970370;28;20054;-80
2022/12/26 07:42:54;;;;;;;24.63;13.80;;;9.00;99.90;;;;;;4987341;28;20049;-78
2022/12/26 07:45:20;;;;;;;22.58;12.63;;;8.90;99.90;;;;;;4971503;28;20046;-83
2022/12/26 07:47:46;;;;;;;24.08;11.48;;;8.80;99.90;;;;;;5003458;28;20050;-81
2022/12/26 07:50:11;;;;;;;22.45;12.80;;;8.60;99.90;;;;;;4976963;28;20957;-82
2022/12/26 07:52:37;;;;;;;20.27;12.43;;;8.80;99.90;;;;;;4969531;28;20050;-82
2022/12/26 07:55:03;;;;;;;22.05;13.07;;;8.90;99.90;;;;;;4972911;28;20065;-82
2022/12/26 07:57:29;;;;;;;22.02;12.50;;;8.60;99.90;;;;;;4987980;28;20397;-82
2022/12/26 07:59:55;;;;;;;24.33;12.20;;;8.60;99.90;;;;;;4986965;28;20399;-83
2022/12/26 08:02:21;;;;;;;20.48;12.45;;;8.80;99.90;;;;;;4986610;28;20038;-80
2022/12/26 08:04:46;;;;;;;22.05;12.93;;;8.90;99.90;;;;;;4986860;28;20070;-82
2022/12/26 08:07:12;;;;;;;22.77;12.40;;;8.70;99.90;;;;;;4985646;28;20450;-82
2022/12/26 08:09:41;;;;;;;20.92;12.20;;;8.90;99.90;;;;;;4971299;28;20454;-83
2022/12/26 08:12:07;;;;;;;22.65;10.80;;;8.60;99.90;;;;;;4982774;28;20042;-80
2022/12/26 08:14:35;;;;;;;19.38;10.68;;;8.70;99.90;;;;;;4989429;28;20485;-83
2022/12/26 08:17:01;;;;;;;21.40;10.32;;;8.80;99.90;;;;;;4988480;28;20041;-81
2022/12/26 08:19:26;;;;;;;25.58;10.85;;;9.00;99.90;;;;;;4993722;28;20446;-84
2022/12/26 08:21:52;;;;;;;17.17;10.35;;;9.00;99.90;;;;;;4973778;28;20038;-80
2022/12/26 08:24:19;;;;;;;20.60;9.98;;;9.00;99.90;;;;;;4971756;28;20054;-81
2022/12/26 08:26:45;;;;;;;17.58;9.63;;;8.90;99.90;;;;;;4973045;28;20054;-82
2022/12/26 08:29:10;;;;;;;17.33;9.18;;;9.10;99.90;;;;;;4989443;28;20516;-84
2022/12/26 08:31:36;;;;;;;14.05;7.82;;;8.90;99.90;;;;;;4990266;28;20069;-81
2022/12/26 08:34:03;;;;;;;16.13;8.85;;;9.00;99.90;;;;;;4972677;28;20125;-81
2022/12/26 08:36:29;;;;;;;21.83;8.90;;;9.10;99.90;;;;;;4991928;28;20082;-82
2022/12/26 08:38:57;;;;;;;17.13;8.50;;;8.90;99.90;;;;;;5019413;28;20078;-83
2022/12/26 08:41:23;;;;;;;18.00;7.65;;;9.10;99.90;;;;;;4993719;28;20574;-83
2022/12/26 08:43:50;;;;;;;15.70;8.20;;;9.10;99.90;;;;;;4982114;28;20125;-81
2022/12/26 08:46:18;;;;;;;16.20;8.27;;;9.20;99.90;;;;;;4987825;28;20487;-81
2022/12/26 08:48:44;;;;;;;16.20;7.57;;;8.90;99.90;;;;;;4987321;28;20366;-82
2022/12/26 08:51:18;;;;;;;21.75;8.38;;;9.20;99.90;;;;;;4988582;28;20035;-80
2022/12/26 08:53:45;;;;;;;15.00;7.85;;;8.90;99.90;;;;;;4973022;28;20138;-83
2022/12/26 08:56:15;;;;;;;18.50;8.55;;;9.00;99.90;;;;;;4991729;28;20046;-81
2022/12/26 08:58:40;;;;;;;16.88;8.55;;;9.00;99.90;;;;;;4971812;28;20046;-80
2022/12/26 09:01:12;;;;;;;19.02;9.13;;;9.10;99.90;;;;;;4987400;28;20034;-81
2022/12/26 09:03:39;;;;;;;19.63;8.90;;;9.10;99.90;;;;;;4986665;28;20049;-84
2022/12/26 09:06:05;;;;;;;19.45;9.40;;;8.80;99.90;;;;;;4985619;28;20045;-84
2022/12/26 09:08:33;;;;;;;21.00;9.15;;;8.90;99.90;;;;;;4973842;28;20500;-80
2022/12/26 09:11:39;;;;;;;22.27;9.80;;;8.80;99.90;;;;;;4976145;28;20054;-82
2022/12/26 09:14:05;;;;;;;18.35;9.30;;;8.90;99.90;;;;;;4988425;28;20064;-82
2022/12/26 09:16:35;;;;;;;21.30;8.73;;;8.80;99.90;;;;;;4990045;28;20530;-85
2022/12/26 09:19:03;;;;;;;25.42;8.55;;;9.10;99.90;;;;;;4986216;28;20043;-83
2022/12/26 09:21:29;;;;;;;16.02;8.50;;;9.00;99.90;;;;;;4984685;28;20046;-83
2022/12/26 09:24:00;;;;;;;19.17;8.52;;;8.80;99.90;;;;;;4969481;28;20136;-83
2022/12/26 09:26:27;;;;;;;14.27;7.82;;;9.00;99.90;;;;;;4987101;28;20069;-82
2022/12/26 09:28:52;;;;;;;18.67;7.75;;;9.00;99.90;;;;;;4985979;28;20050;-82
2022/12/26 09:31:21;;;;;;;16.02;8.38;;;9.00;99.90;;;;;;4968652;28;20625;-83
2022/12/26 09:33:48;;;;;;;18.70;7.80;;;9.10;99.90;;;;;;4987172;28;20051;-82
2022/12/26 09:36:17;;;;;;;16.42;7.10;;;9.20;99.90;;;;;;4988174;28;20041;-83
2022/12/26 09:38:44;;;;;;;17.17;6.82;;;9.00;99.90;;;;;;4986451;28;20326;-82
2022/12/26 09:41:31;;;;;;;13.82;5.50;;;8.90;99.90;;;;;;4982159;28;20050;-85
2022/12/26 09:44:15;;;;;;;16.92;5.07;;;9.10;99.90;;;;;;4968417;28;20054;-83
2022/12/26 09:47:12;;;;;;;11.90;4.10;;;9.10;99.90;;;;;;4984791;28;20053;-82
2022/12/26 09:49:49;;;;;;;18.60;3.83;;;9.10;99.90;;;;;;4986333;28;20458;-82
2022/12/26 09:52:21;;;;;;;22.05;3.05;;;8.70;99.90;;;;;;4989957;28;20038;-81
2022/12/26 09:54:56;;;;;;;19.77;3.38;;;8.70;99.90;;;;;;4982553;28;20133;-82
2022/12/26 09:57:37;;;;;;;26.50;3.40;;;8.30;99.90;;;;;;4986119;28;20132;-82
2022/12/26 10:00:05;;;;;;;16.45;2.58;;;8.00;99.90;;;;;;4985362;28;20042;-83
2022/12/26 10:02:31;;;;;;;15.77;2.67;;;7.90;99.90;;;;;;4971651;28;20082;-82
2022/12/26 10:04:58;;;;;;;23.75;2.78;;;7.80;99.90;;;;;;4990060;28;20362;-83
2022/12/26 10:07:36;;;;;;;17.63;3.10;;;7.90;99.90;;;;;;4970739;28;20026;-83
2022/12/26 10:10:13;;;;;;;17.90;2.90;;;7.80;99.90;;;;;;4989023;28;20714;-82
2022/12/26 10:12:43;;;;;;;16.45;2.55;;;7.70;99.90;;;;;;4987562;28;20038;-83
2022/12/26 10:15:33;;;;;;;20.33;2.85;;;7.60;99.90;;;;;;4972218;28;20141;-82
2022/12/26 10:18:07;;;;;;;18.52;2.58;;;7.60;99.90;;;;;;4985213;28;20040;-82
2022/12/26 10:21:11;;;;;;;16.60;2.40;;;7.60;99.90;;;;;;4985011;28;20140;-77
2022/12/26 10:23:39;;;;;;;19.88;2.85;;;7.70;99.90;;;;;;4980124;28;20050;-82
2022/12/26 10:26:22;;;;;;;19.00;2.90;;;7.70;99.90;;;;;;4974663;28;20054;-83
2022/12/26 10:29:07;;;;;;;20.55;2.15;;;7.70;99.90;;;;;;4991994;28;20486;-83
2022/12/26 10:31:45;;;;;;;15.48;2.85;;;7.60;99.90;;;;;;4974314;28;20154;-83
2022/12/26 10:34:28;;;;;;;17.27;3.13;;;7.70;99.90;;;;;;4974729;28;20049;-84
2022/12/26 10:36:59;;;;;;;24.90;3.33;;;7.70;99.90;;;;;;4992729;28;20137;-83
2022/12/26 10:39:52;;;;;;;15.88;2.75;;;7.70;99.90;;;;;;4994136;28;20039;-83
2022/12/26 10:42:32;;;;;;;24.20;2.50;;;7.80;99.90;;;;;;4976955;28;20046;-83
2022/12/26 10:44:58;;;;;;;14.13;2.22;;;7.60;99.90;;;;;;4975155;28;20112;-84
2022/12/26 10:47:34;;;;;;;18.40;2.28;;;7.80;99.90;;;;;;4993578;28;20133;-84
2022/12/26 10:50:00;;;;;;;12.20;1.90;;;7.50;99.90;;;;;;4992403;28;20129;-83
2022/12/26 10:52:36;;;;;;;13.52;1.90;;;7.60;99.90;;;;;;4974192;28;20473;-82
2022/12/26 10:55:03;;;;;;;9.25;1.45;;;7.60;99.90;;;;;;4991427;28;20055;-85
2022/12/26 10:57:33;;;;;;;11.30;1.70;;;7.60;99.90;;;;;;5004438;28;20038;-84
2022/12/26 11:00:17;;;;;;;14.18;1.88;;;7.30;99.90;;;;;;4988315;28;20046;-86
2022/12/26 11:02:43;;;;;;;10.50;1.45;;;7.50;99.90;;;;;;4987663;28;20481;-84
2022/12/26 11:05:12;;;;;;;15.20;2.38;;;7.30;99.90;;;;;;4992278;28;20038;-83
2022/12/26 11:07:45;;;;;;;18.65;2.33;;;7.40;99.90;;;;;;4989033;28;20043;-84
2022/12/26 11:10:18;;;;;;;17.08;1.83;;;7.20;99.90;;;;;;4989714;28;20061;-83
2022/12/26 11:12:51;;;;;;;18.00;2.25;;;7.30;99.90;;;;;;4979808;28;20042;-83
2022/12/26 11:15:28;;;;;;;20.70;2.25;;;7.30;99.90;;;;;;4970841;28;20041;-82
2022/12/26 11:18:27;;;;;;;14.93;2.38;;;7.30;99.90;;;;;;4989067;28;20034;-83
2022/12/26 11:20:53;;;;;;;21.38;2.28;;;7.20;99.90;;;;;;4973191;28;20050;-83
2022/12/26 11:23:30;;;;;;;15.38;1.90;;;7.30;99.90;;;;;;4986071;28;20085;-84
2022/12/26 11:26:00;;;;;;;10.02;1.73;;;7.20;99.90;;;;;;4981703;28;20413;-83
2022/12/26 11:28:36;;;;;;;14.02;1.70;;;7.20;99.90;;;;;;4990994;28;20061;-84
2022/12/26 11:31:06;;;;;;;11.82;1.70;;;7.20;99.90;;;;;;4966051;28;20069;-84
2022/12/26 11:33:42;;;;;;;13.77;1.80;;;7.20;99.90;;;;;;4969995;28;20058;-84
2022/12/26 11:36:20;;;;;;;12.52;1.83;;;7.20;99.90;;;;;;4968909;28;20046;-83
2022/12/26 11:39:05;;;;;;;21.13;2.40;;;7.20;99.90;;;;;;4985429;28;20077;-84
2022/12/26 11:41:37;;;;;;;13.60;1.80;;;7.20;99.90;;;;;;5004601;28;20058;-84
2022/12/26 11:44:09;;;;;;;8.38;1.60;;;7.30;99.90;;;;;;4970951;28;20105;-83
2022/12/26 11:46:44;;;;;;;13.23;2.03;;;7.20;99.90;;;;;;4983974;28;20049;-86
2022/12/26 11:49:22;;;;;;;16.52;2.40;;;7.20;99.90;;;;;;4984060;28;20332;-84
2022/12/26 11:51:50;;;;;;;19.98;2.10;;;7.10;99.90;;;;;;4982361;28;20042;-82
2022/12/26 11:54:23;;;;;;;19.02;2.03;;;7.20;99.90;;;;;;4990949;28;20085;-82
2022/12/26 11:57:14;;;;;;;16.23;2.55;;;7.10;99.90;;;;;;4992174;28;20074;-81
2022/12/26 11:59:40;;;;;;;18.80;2.50;;;7.10;99.90;;;;;;4988104;28;20117;-82
2022/12/26 12:02:22;;;;;;;15.65;2.58;;;7.30;99.90;;;;;;4992484;28;20130;-82
2022/12/26 12:04:50;;;;;;;21.98;2.80;;;7.10;99.90;;;;;;4989380;28;20193;-82
2022/12/26 12:07:53;;;;;;;27.25;2.75;;;7.10;99.90;;;;;;4991634;28;20153;-81
2022/12/26 12:10:28;;;;;;;14.07;2.33;;;7.10;99.90;;;;;;4970436;28;20074;-81
2022/12/26 12:13:17;;;;;;;;;;;7.20;99.90;;;;;;4992080;28;20800;-81
2022/12/26 12:16:12;;;;;;;17.45;2.10;;;7.10;99.90;;;;;;5019800;28;19972;-82
2022/12/26 12:18:59;;;;;;;19.07;2.70;;;7.20;99.90;;;;;;4990336;28;20050;-82
2022/12/26 12:21:34;;;;;;;15.43;2.10;;;7.20;99.90;;;;;;5005566;28;20083;-82
2022/12/26 12:24:14;;;;;;;16.60;2.45;;;7.20;99.90;;;;;;5009131;28;20048;-82
2022/12/26 12:30:31;;;;;;;15.10;2.67;;;7.20;99.90;;;;;;5015541;28;20578;-82
2022/12/26 12:33:12;;;;;;;20.25;2.97;;;7.30;99.90;;;;;;4993832;28;20164;-81
2022/12/26 12:35:56;;;;;;;27.42;3.22;;;7.40;99.90;;;;;;5008973;28;20034;-82
2022/12/26 12:38:30;;;;;;;19.35;3.35;;;7.50;99.90;;;;;;4990644;28;20445;-80
2022/12/26 12:41:28;;;;;;;26.33;3.08;;;7.50;99.90;;;;;;4984188;28;20046;-80
2022/12/26 12:44:11;;;;;;;16.42;2.45;;;7.40;99.90;;;;;;4991690;28;20054;-82
2022/12/26 12:47:09;;;;;;;22.30;3.08;;;7.50;99.90;;;;;;5007834;28;20456;-81
2022/12/26 12:49:46;;;;;;;21.67;2.63;;;7.40;99.90;;;;;;5008508;28;20057;-82
2022/12/26 12:52:52;;;;;;;20.30;2.85;;;7.30;99.90;;;;;;5004678;28;20062;-81
2022/12/26 12:55:23;;;;;;;20.15;2.90;;;7.30;99.90;;;;;;4981810;28;20042;-79
2022/12/26 12:58:01;;;;;;;17.38;2.90;;;7.20;99.90;;;;;;4988681;28;20096;-81
2022/12/26 13:00:37;;;;;;;22.08;3.75;;;7.20;99.90;;;;;;4967301;28;20049;-82
2022/12/26 13:03:18;;;;;;;21.08;3.63;;;7.20;99.90;;;;;;4985841;28;20058;-81
2022/12/26 13:05:56;;;;;;;26.63;3.17;;;7.20;99.90;;;;;;4975167;28;20104;-81
2022/12/26 13:08:57;;;;;;;23.23;3.30;;;7.10;99.90;;;;;;5003645;28;20126;-82
2022/12/26 13:11:38;;;;;;;28.77;3.00;;;7.10;99.90;;;;;;4991219;28;20066;-80
2022/12/26 13:14:22;;;;;;;14.98;2.75;;;7.10;99.90;;;;;;4986520;28;20053;-80
2022/12/26 13:17:10;;;;;;;28.75;3.30;;;7.00;99.90;;;;;;4989614;28;20560;-81
2022/12/26 13:20:10;;;;;;;23.48;2.70;;;7.00;99.90;;;;;;4987657;28;20575;-80
2022/12/26 13:26:01;;;;;;;17.50;2.78;;;7.00;99.90;;;;;;4971512;28;20125;-81
2022/12/26 13:28:31;;;;;;;17.60;2.42;;;7.00;99.90;;;;;;5000622;28;20070;-80
2022/12/26 13:30:57;;;;;;;24.23;3.17;;;7.20;99.90;;;;;;4970662;28;20133;-80
2022/12/26 13:33:23;;;;;;;12.35;2.03;;;7.20;99.90;;;;;;4957828;28;20055;-80
2022/12/26 13:36:03;;;;;;;17.10;2.60;;;7.20;99.90;;;;;;4979497;28;20125;-80
2022/12/26 13:38:56;;;;;;;18.15;3.15;;;7.20;99.90;;;;;;4976312;28;20691;-82
2022/12/26 13:44:27;;;;;;;22.65;3.05;;;7.00;99.90;;;;;;4990983;28;20084;-81
2022/12/26 13:46:55;;;;;;;22.90;2.83;;;6.90;99.90;;;;;;4958393;28;20085;-81
2022/12/26 13:49:38;;;;;;;17.92;2.13;;;6.90;99.90;;;;;;4990664;28;20069;-79
2022/12/26 13:52:10;;;;;;;18.38;2.50;;;7.00;99.90;;;;;;5004897;28;20246;-81
2022/12/26 13:55:05;;;;;;;18.42;2.75;;;6.90;99.90;;;;;;4975233;28;20050;-82
2022/12/26 13:57:34;;;;;;;16.15;2.33;;;6.90;99.90;;;;;;4969237;28;20038;-80
2022/12/26 14:00:16;;;;;;;21.35;2.97;;;6.90;99.90;;;;;;4977587;28;20116;-80
2022/12/26 14:03:09;;;;;;;20.70;2.22;;;6.90;99.90;;;;;;4976366;28;20130;-81
2022/12/26 14:06:01;;;;;;;21.35;2.80;;;6.90;99.90;;;;;;4952064;28;20046;-80
2022/12/26 14:08:33;;;;;;;19.60;2.55;;;6.90;99.90;;;;;;5000725;28;20046;-81
2022/12/26 14:11:17;;;;;;;18.88;2.42;;;6.90;99.90;;;;;;4985079;28;20073;-81
2022/12/26 14:14:11;;;;;;;20.77;2.70;;;6.90;99.90;;;;;;5001088;28;20057;-82
2022/12/26 14:17:01;;;;;;;18.63;2.60;;;6.80;99.90;;;;;;4968580;28;20305;-81
2022/12/26 14:19:54;;;;;;;18.70;2.42;;;6.90;99.90;;;;;;4998672;28;20042;-80
2022/12/26 14:22:49;;;;;;;16.17;2.35;;;6.80;99.90;;;;;;4986118;28;20047;-80
2022/12/26 14:25:39;;;;;;;21.13;3.25;;;6.80;99.90;;;;;;5015690;28;20058;-79
2022/12/26 14:28:31;;;;;;;24.20;2.53;;;6.80;99.90;;;;;;4977246;28;20058;-79
2022/12/26 14:31:13;;;;;;;13.13;2.53;;;6.60;99.90;;;;;;4988868;28;20081;-80
2022/12/26 14:34:03;;;;;;;15.65;2.60;;;6.60;99.90;;;;;;4972667;28;20439;-81
2022/12/26 14:36:41;;;;;;;19.30;2.35;;;6.40;99.90;;;;;;4970404;28;20077;-79
2022/12/26 14:39:43;;;;;;;23.98;3.40;;;6.40;99.90;;;;;;4982259;28;20916;-82
2022/12/26 14:45:25;;;;;;;24.55;2.97;;;6.20;99.90;;;;;;4983988;28;20042;-81
2022/12/26 14:47:50;;;;;;;15.50;2.60;;;6.10;99.90;;;;;;4986501;28;20142;-84
2022/12/26 14:50:31;;;;;;;21.88;3.08;;;6.00;99.90;;;;;;4986412;28;20106;-83
2022/12/26 14:53:33;;;;;;;18.80;3.10;;;6.10;99.90;;;;;;5012834;28;20116;-84
2022/12/26 14:56:14;;;;;;;26.52;3.28;;;6.00;99.90;;;;;;4993145;28;20046;-84
2022/12/26 14:58:51;;;;;;;25.20;3.22;;;5.90;99.90;;;;;;4960768;28;20150;-83
2022/12/26 15:01:23;;;;;;;20.23;2.67;;;6.00;99.90;;;;;;4998375;28;20038;-83
2022/12/26 15:04:10;;;;;;;22.38;2.45;;;5.90;99.90;;;;;;4983333;28;20077;-83
2022/12/26 15:07:09;;;;;;;19.67;2.88;;;5.90;99.90;;;;;;4979902;28;20061;-86
2022/12/26 15:09:51;;;;;;;20.15;3.00;;;5.90;99.90;;;;;;4982683;28;20092;-82
2022/12/26 15:12:17;;;;;;;22.85;2.70;;;5.80;99.90;;;;;;4981449;28;20058;-83
2022/12/26 15:15:15;;;;;;;24.00;3.33;;;5.80;99.90;;;;;;4979054;28;20046;-82
2022/12/26 15:17:47;;;;;;;17.65;2.15;;;5.70;99.90;;;;;;4996273;28;20069;-83
2022/12/26 15:20:43;;;;;;;17.45;2.65;;;5.60;99.90;;;;;;4982808;28;20057;-83
2022/12/26 15:23:50;;;;;;;24.73;3.33;;;5.60;99.90;;;;;;4982220;28;20097;-82
2022/12/26 15:26:46;;;;;;;15.65;2.88;;;5.50;99.90;;;;;;4965962;28;20137;-82
2022/12/26 15:29:24;;;;;;;16.92;2.45;;;5.50;99.90;;;;;;4981912;28;20054;-81
2022/12/26 15:31:59;;;;;;;20.80;2.55;;;5.50;99.90;;;;;;4984254;28;20053;-82
2022/12/26 15:34:44;;;;;;;21.00;3.00;;;5.40;99.90;;;;;;4964828;28;20046;-82
2022/12/26 15:37:42;;;;;;;20.00;2.65;;;5.30;99.90;;;;;;4983879;28;20073;-82
2022/12/26 15:40:13;;;;;;;23.75;2.92;;;5.30;99.90;;;;;;4978358;28;20065;-82
2022/12/26 15:43:07;;;;;;;17.52;2.85;;;5.20;99.90;;;;;;4981487;28;20050;-84
2022/12/26 15:45:57;;;;;;;24.75;3.08;;;5.10;99.90;;;;;;4981464;28;20046;-82